createdAt,value
2019-04-04T00:00:51.230Z,60.42
2019-04-04T00:03:40.026Z,60.09
2019-04-04T00:06:28.723Z,60.05
2019-04-04T00:09:17.437Z,59.85
2019-04-04T00:12:06.125Z,59.81
2019-04-04T00:14:55.913Z,59.39
2019-04-04T00:17:44.038Z,58.90
2019-04-04T00:20:32.596Z,58.67
2019-04-04T00:23:20.996Z,58.86
2019-04-04T00:26:10.915Z,58.54
2019-04-04T00:29:01.440Z,57.95
2019-04-04T00:31:50.867Z,57.92
2019-04-04T00:34:39.505Z,58.16
2019-04-04T00:37:28.000Z,58.27
2019-04-04T00:40:16.829Z,58.10
2019-04-04T00:43:05.302Z,58.06
2019-04-04T00:45:53.670Z,59.12
2019-04-04T00:48:41.719Z,59.81
2019-04-04T00:51:30.562Z,60.48
2019-04-04T00:54:18.717Z,60.37
2019-04-04T00:57:07.212Z,62.21
2019-04-04T00:59:55.718Z,61.93
2019-04-04T01:02:44.444Z,61.78
2019-04-04T01:05:32.932Z,61.82
2019-04-04T01:08:21.370Z,61.77
2019-04-04T01:11:10.628Z,62.43
2019-04-04T01:13:59.051Z,62.21
2019-04-04T01:16:48.151Z,61.73
2019-04-04T01:19:36.815Z,63.17
2019-04-04T01:22:25.680Z,62.42
2019-04-04T01:25:14.027Z,61.82
2019-04-04T01:28:02.150Z,61.96
2019-04-04T01:30:50.493Z,61.88
2019-04-04T01:33:39.162Z,61.47
2019-04-04T01:36:27.467Z,61.07
2019-04-04T01:39:16.486Z,61.34
2019-04-04T01:42:06.971Z,61.02
2019-04-04T01:44:55.151Z,60.80
2019-04-04T01:47:43.912Z,60.77
2019-04-04T01:50:32.345Z,60.46
2019-04-04T01:53:20.940Z,60.14
2019-04-04T01:56:09.402Z,59.62
2019-04-04T01:58:57.941Z,59.77
2019-04-04T02:01:47.424Z,59.95
2019-04-04T02:04:35.714Z,59.93
2019-04-04T02:07:24.896Z,59.71
2019-04-04T02:10:14.036Z,59.83
2019-04-04T02:13:02.904Z,60.20
2019-04-04T02:15:51.909Z,59.68
2019-04-04T02:18:40.774Z,59.49
2019-04-04T02:21:29.643Z,59.86
2019-04-04T02:24:18.346Z,59.45
2019-04-04T02:27:06.919Z,59.07
2019-04-04T02:29:56.539Z,59.16
2019-04-04T02:32:45.475Z,59.44
2019-04-04T02:35:34.223Z,59.59
2019-04-04T02:38:27.183Z,59.27
2019-04-04T02:41:15.589Z,59.75
2019-04-04T02:44:04.822Z,59.61
2019-04-04T02:46:52.652Z,59.83
2019-04-04T02:49:41.565Z,60.11
2019-04-04T02:52:30.069Z,59.90
2019-04-04T02:55:18.733Z,59.95
2019-04-04T02:58:07.932Z,59.94
2019-04-04T03:00:59.222Z,59.99
2019-04-04T03:03:45.964Z,59.73
2019-04-04T03:06:34.826Z,60.10
2019-04-04T03:09:23.602Z,60.05
2019-04-04T03:12:12.220Z,60.23
2019-04-04T03:15:00.258Z,60.05
2019-04-04T03:17:49.059Z,59.68
2019-04-04T03:20:37.418Z,59.33
2019-04-04T03:23:26.240Z,59.71
2019-04-04T03:26:19.027Z,60.02
2019-04-04T03:29:05.836Z,59.92
2019-04-04T03:31:54.541Z,59.91
2019-04-04T03:34:48.644Z,59.79
2019-04-04T03:37:33.527Z,59.51
2019-04-04T03:40:25.654Z,59.36
2019-04-04T03:43:15.837Z,59.37
2019-04-04T03:46:02.317Z,59.71
2019-04-04T03:48:51.198Z,59.89
2019-04-04T03:51:40.219Z,59.88
2019-04-04T03:54:28.568Z,59.70
2019-04-04T03:57:16.883Z,59.32
2019-04-04T04:00:07.559Z,59.59
2019-04-04T04:02:56.613Z,59.54
2019-04-04T04:05:45.405Z,59.18
2019-04-04T04:08:33.722Z,59.49
2019-04-04T04:11:22.299Z,59.85
2019-04-04T04:14:11.466Z,60.54
2019-04-04T04:17:00.436Z,61.00
2019-04-04T04:19:49.355Z,60.53
2019-04-04T04:22:37.915Z,60.35
2019-04-04T04:25:26.581Z,60.64
2019-04-04T04:28:15.075Z,60.24
2019-04-04T04:31:03.525Z,60.36
2019-04-04T04:33:52.074Z,60.43
2019-04-04T04:36:41.171Z,59.98
2019-04-04T04:39:36.079Z,60.26
2019-04-04T04:42:21.442Z,60.31
2019-04-04T04:45:12.114Z,60.30
2019-04-04T04:48:00.567Z,60.41
2019-04-04T04:50:49.443Z,60.17
2019-04-04T04:53:37.921Z,60.15
2019-04-04T04:56:26.840Z,60.51
2019-04-04T04:59:15.242Z,60.08
2019-04-04T05:02:03.851Z,59.89
2019-04-04T05:04:52.134Z,59.87
2019-04-04T05:07:40.584Z,59.91
2019-04-04T05:10:29.226Z,60.28
2019-04-04T05:13:18.025Z,59.78
2019-04-04T05:16:08.844Z,59.75
2019-04-04T05:18:57.625Z,59.56
2019-04-04T05:21:46.720Z,59.79
2019-04-04T05:24:35.419Z,59.91
2019-04-04T05:27:24.101Z,59.85
2019-04-04T05:30:15.938Z,60.32
2019-04-04T05:33:02.868Z,60.09
2019-04-04T05:35:51.626Z,60.35
2019-04-04T05:38:42.650Z,60.29
2019-04-04T05:41:30.346Z,60.01
2019-04-04T05:44:19.591Z,59.93
2019-04-04T05:47:07.914Z,59.99
2019-04-04T05:49:56.218Z,60.24
2019-04-04T05:52:44.981Z,60.45
2019-04-04T05:55:33.751Z,60.71
2019-04-04T05:58:22.799Z,60.51
2019-04-04T06:01:13.114Z,61.21
2019-04-04T06:04:03.907Z,61.18
2019-04-04T06:06:52.093Z,61.59
2019-04-04T06:09:41.966Z,61.06
2019-04-04T06:12:31.287Z,61.63
2019-04-04T06:15:19.972Z,61.39
2019-04-04T06:18:11.817Z,61.62
2019-04-04T06:20:58.987Z,62.02
2019-04-04T06:23:47.551Z,61.61
2019-04-04T06:26:38.201Z,61.16
2019-04-04T06:29:27.077Z,60.90
2019-04-04T06:32:15.889Z,60.45
2019-04-04T06:35:04.843Z,60.69
2019-04-04T06:37:53.183Z,60.98
2019-04-04T06:40:41.776Z,60.77
2019-04-04T06:43:30.267Z,60.62
2019-04-04T06:46:22.496Z,60.34
2019-04-04T06:49:08.623Z,60.74
2019-04-04T06:51:56.817Z,60.68
2019-04-04T06:57:21.206Z,60.62
2019-04-04T07:00:10.041Z,60.87
2019-04-04T07:02:57.836Z,60.80
2019-04-04T07:05:46.699Z,60.24
2019-04-04T07:08:35.247Z,59.93
2019-04-04T07:11:24.142Z,59.70
2019-04-04T07:14:12.398Z,59.86
2019-04-04T07:17:01.816Z,59.24
2019-04-04T07:19:50.050Z,59.23
2019-04-04T07:22:38.727Z,59.46
2019-04-04T07:25:27.778Z,59.43
2019-04-04T07:28:16.862Z,58.79
2019-04-04T07:31:06.387Z,58.75
2019-04-04T07:33:54.530Z,58.74
2019-04-04T07:36:43.002Z,58.54
2019-04-04T07:39:32.725Z,58.55
2019-04-04T07:42:21.955Z,58.58
2019-04-04T07:45:10.551Z,58.32
2019-04-04T07:47:59.441Z,57.85
2019-04-04T07:50:48.022Z,57.50
2019-04-04T07:53:37.491Z,57.47
2019-04-04T07:56:26.759Z,57.46
2019-04-04T07:59:15.071Z,57.10
2019-04-04T08:02:04.343Z,56.92
2019-04-04T08:04:53.297Z,56.77
2019-04-04T08:07:42.257Z,56.64
2019-04-04T08:10:31.342Z,57.27
2019-04-04T08:13:20.217Z,56.98
2019-04-04T08:16:08.828Z,56.95
2019-04-04T08:18:57.130Z,56.76
2019-04-04T08:21:46.104Z,55.72
2019-04-04T08:24:34.771Z,55.59
2019-04-04T08:27:23.867Z,55.54
2019-04-04T08:30:12.577Z,55.53
2019-04-04T08:33:01.083Z,55.60
2019-04-04T08:35:50.048Z,54.95
2019-04-04T08:38:38.602Z,55.16
2019-04-04T08:41:27.473Z,53.84
2019-04-04T08:44:16.618Z,53.98
2019-04-04T08:47:05.521Z,53.88
2019-04-04T08:49:54.459Z,54.38
2019-04-04T08:52:43.055Z,53.95
2019-04-04T08:55:35.045Z,53.95
2019-04-04T08:58:23.389Z,54.08
2019-04-04T09:01:12.091Z,54.57
2019-04-04T09:04:01.114Z,55.13
2019-04-04T09:06:49.956Z,54.92
2019-04-04T09:09:38.870Z,55.36
2019-04-04T09:12:27.682Z,55.80
2019-04-04T09:15:16.564Z,56.60
2019-04-04T09:18:05.278Z,56.34
2019-04-04T09:20:53.989Z,56.43
2019-04-04T09:23:42.767Z,56.90
2019-04-04T09:26:31.487Z,56.69
2019-04-04T09:29:20.537Z,56.62
2019-04-04T09:32:09.586Z,57.14
2019-04-04T09:34:58.745Z,56.48
2019-04-04T09:37:48.027Z,56.46
2019-04-04T09:40:36.981Z,56.45
2019-04-04T09:43:26.177Z,55.43
2019-04-04T09:46:15.287Z,55.63
2019-04-04T09:49:03.829Z,55.81
2019-04-04T09:51:52.177Z,56.17
2019-04-04T09:54:41.147Z,56.44
2019-04-04T09:57:29.548Z,56.05
2019-04-04T10:00:21.103Z,56.32
2019-04-04T10:03:09.502Z,55.64
2019-04-04T10:05:58.667Z,55.28
2019-04-04T10:08:47.493Z,55.38
2019-04-04T10:11:36.233Z,55.53
2019-04-04T10:14:25.029Z,55.41
2019-04-04T10:17:13.854Z,55.80
2019-04-04T10:20:02.435Z,56.70
2019-04-04T10:22:51.347Z,56.49
2019-04-04T10:25:40.331Z,55.86
2019-04-04T10:28:28.431Z,56.60
2019-04-04T10:31:17.251Z,56.38
2019-04-04T10:34:05.966Z,56.41
2019-04-04T10:36:54.370Z,55.68
2019-04-04T10:39:43.105Z,56.21
2019-04-04T10:42:31.511Z,55.84
2019-04-04T10:45:20.365Z,54.74
2019-04-04T10:48:09.396Z,54.52
2019-04-04T10:50:58.109Z,54.03
2019-04-04T10:53:47.280Z,54.72
2019-04-04T10:56:36.324Z,54.72
2019-04-04T10:59:24.709Z,54.78
2019-04-04T11:02:13.316Z,54.52
2019-04-04T11:05:01.857Z,54.10
2019-04-04T11:07:51.124Z,54.51
2019-04-04T11:10:39.754Z,54.09
2019-04-04T11:13:33.827Z,54.16
2019-04-04T11:16:29.589Z,54.41
2019-04-04T11:19:09.748Z,54.49
2019-04-04T11:21:58.760Z,53.55
2019-04-04T11:24:47.327Z,52.95
2019-04-04T11:27:36.122Z,52.68
2019-04-04T11:30:24.196Z,52.36
2019-04-04T11:33:12.677Z,51.98
2019-04-04T11:36:01.658Z,51.38
2019-04-04T11:38:50.719Z,51.46
2019-04-04T11:41:39.260Z,51.70
2019-04-04T11:44:28.594Z,51.75
2019-04-04T11:47:17.628Z,51.94
2019-04-04T11:50:07.053Z,52.22
2019-04-04T11:52:55.851Z,50.96
2019-04-04T11:55:44.701Z,50.53
2019-04-04T11:58:33.590Z,50.71
2019-04-04T12:01:23.693Z,50.94
2019-04-04T12:04:12.265Z,50.73
2019-04-04T12:07:01.573Z,50.47
2019-04-04T12:09:50.299Z,49.41
2019-04-04T12:12:39.363Z,50.18
2019-04-04T12:15:28.571Z,49.35
2019-04-04T12:18:16.864Z,48.58
2019-04-04T12:21:05.738Z,48.64
2019-04-04T12:23:54.943Z,48.31
2019-04-04T12:26:43.581Z,48.15
2019-04-04T12:29:31.963Z,47.92
2019-04-04T12:32:20.555Z,47.87
2019-04-04T12:35:12.528Z,47.49
2019-04-04T12:38:00.980Z,47.54
2019-04-04T12:40:49.557Z,47.19
2019-04-04T12:43:38.346Z,46.24
2019-04-04T12:46:27.054Z,46.23
2019-04-04T12:49:16.002Z,46.05
2019-04-04T12:52:05.110Z,46.05
2019-04-04T12:54:53.640Z,45.03
2019-04-04T12:57:42.603Z,45.49
2019-04-04T13:00:31.568Z,45.60
2019-04-04T13:03:22.274Z,45.71
2019-04-04T13:06:09.633Z,46.34
2019-04-04T13:08:58.138Z,46.20
2019-04-04T13:11:47.075Z,46.36
2019-04-04T13:14:35.924Z,46.76
2019-04-04T13:17:24.713Z,46.76
2019-04-04T13:20:13.638Z,47.44
2019-04-04T13:23:02.573Z,47.64
2019-04-04T13:25:51.279Z,48.07
2019-04-04T13:28:40.524Z,47.77
2019-04-04T13:31:29.110Z,48.52
2019-04-04T13:34:18.136Z,49.36
2019-04-04T13:37:06.889Z,49.58
2019-04-04T13:39:55.329Z,49.96
2019-04-04T13:42:44.024Z,50.06
2019-04-04T13:45:32.634Z,51.13
2019-04-04T13:48:21.345Z,50.62
2019-04-04T13:51:10.144Z,50.79
2019-04-04T13:53:58.823Z,51.25
2019-04-04T13:56:47.651Z,51.40
2019-04-04T13:59:36.760Z,51.14
2019-04-04T14:02:24.928Z,51.55
2019-04-04T14:05:14.678Z,52.94
2019-04-04T14:08:03.638Z,54.29
2019-04-04T14:10:57.944Z,53.91
2019-04-04T14:13:42.517Z,54.48
2019-04-04T14:16:31.006Z,54.85
2019-04-04T14:19:19.670Z,54.75
2019-04-04T14:22:08.999Z,54.29
2019-04-04T14:24:57.904Z,54.41
2019-04-04T14:27:46.775Z,53.54
2019-04-04T14:30:35.318Z,53.55
2019-04-04T14:33:23.947Z,53.23
2019-04-04T14:36:12.284Z,53.01
2019-04-04T14:39:01.021Z,53.01
2019-04-04T14:41:49.555Z,53.51
2019-04-04T14:44:38.062Z,53.40
2019-04-04T14:47:26.282Z,53.63
2019-04-04T14:50:15.413Z,53.84
2019-04-04T14:53:03.676Z,54.46
2019-04-04T14:55:51.745Z,54.43
2019-04-04T14:58:40.607Z,54.32
2019-04-04T15:01:29.542Z,54.12
2019-04-04T15:04:18.710Z,54.57
2019-04-04T15:07:08.614Z,54.46
2019-04-04T15:09:57.793Z,54.97
2019-04-04T15:12:46.549Z,55.00
2019-04-04T15:15:34.796Z,56.06
2019-04-04T15:18:23.214Z,56.48
2019-04-04T15:21:11.493Z,56.48
2019-04-04T15:24:00.604Z,56.44
2019-04-04T15:26:49.662Z,56.73
2019-04-04T15:29:38.633Z,56.50
2019-04-04T15:32:27.665Z,57.04
2019-04-04T15:35:16.499Z,56.92
2019-04-04T15:38:05.137Z,57.53
2019-04-04T15:40:53.339Z,57.87
2019-04-04T15:43:42.850Z,57.67
2019-04-04T15:46:32.280Z,57.73
2019-04-04T15:49:23.072Z,57.71
2019-04-04T15:52:11.901Z,57.96
2019-04-04T15:55:00.490Z,58.22
2019-04-04T15:57:49.463Z,58.44
2019-04-04T16:00:40.491Z,59.36
2019-04-04T16:03:29.942Z,59.02
2019-04-04T16:06:19.331Z,59.11
2019-04-04T16:09:08.412Z,59.71
2019-04-04T16:11:57.354Z,60.21
2019-04-04T16:14:48.912Z,60.74
2019-04-04T16:17:37.726Z,60.94
2019-04-04T16:20:26.631Z,61.06
2019-04-04T16:23:15.460Z,61.14
2019-04-04T16:26:04.541Z,61.49
2019-04-04T16:28:54.516Z,61.01
2019-04-04T16:31:43.157Z,61.46
2019-04-04T16:34:31.872Z,61.39
2019-04-04T16:37:20.421Z,61.33
2019-04-04T16:40:10.623Z,61.13
2019-04-04T16:42:59.032Z,61.44
2019-04-04T16:45:47.344Z,60.91
2019-04-04T16:48:35.879Z,60.52
2019-04-04T16:51:24.552Z,60.28
2019-04-04T16:54:13.132Z,60.24
2019-04-04T16:57:01.618Z,59.93
2019-04-04T16:59:50.716Z,60.22
2019-04-04T17:02:39.351Z,60.15
2019-04-04T17:05:28.342Z,60.19
2019-04-04T17:08:17.807Z,60.18
2019-04-04T17:11:06.398Z,60.30
2019-04-04T17:13:54.513Z,60.27
2019-04-04T17:16:43.381Z,60.14
2019-04-04T17:19:32.353Z,60.30
2019-04-04T17:22:20.620Z,60.12
2019-04-04T17:25:09.809Z,60.00
2019-04-04T17:27:59.463Z,59.94
2019-04-04T17:30:47.832Z,59.69
2019-04-04T17:33:36.938Z,60.01
2019-04-04T17:36:26.019Z,60.13
2019-04-04T17:39:15.058Z,60.95
2019-04-04T17:42:03.945Z,60.82
2019-04-04T17:44:52.657Z,60.63
2019-04-04T17:47:41.970Z,60.80
2019-04-04T17:50:31.305Z,61.18
2019-04-04T17:53:20.277Z,61.19
2019-04-04T17:56:09.820Z,61.36
2019-04-04T17:58:58.977Z,61.25
2019-04-04T18:01:50.370Z,61.30
2019-04-04T18:04:48.336Z,61.49
2019-04-04T18:07:29.662Z,61.04
2019-04-04T18:10:20.713Z,60.87
2019-04-04T18:13:09.001Z,61.01
2019-04-04T18:15:57.962Z,61.52
2019-04-04T18:18:46.726Z,61.12
2019-04-04T18:21:35.284Z,61.48
2019-04-04T18:24:24.225Z,61.79
2019-04-04T18:27:13.114Z,61.86
2019-04-04T18:30:01.489Z,61.92
2019-04-04T18:32:50.085Z,61.56
2019-04-04T18:35:44.526Z,61.68
2019-04-04T18:38:29.978Z,61.58
2019-04-04T18:41:18.598Z,61.78
2019-04-04T18:44:07.885Z,61.59
2019-04-04T18:46:56.497Z,62.08
2019-04-04T18:49:45.448Z,62.45
2019-04-04T18:52:34.491Z,62.53
2019-04-04T18:55:23.554Z,62.06
2019-04-04T18:58:12.463Z,61.60
2019-04-04T19:01:01.529Z,61.49
2019-04-04T19:03:49.892Z,61.53
2019-04-04T19:06:38.748Z,61.34
2019-04-04T19:09:27.916Z,60.83
2019-04-04T19:12:16.893Z,61.08
2019-04-04T19:15:08.011Z,61.07
2019-04-04T19:17:57.173Z,61.68
2019-04-04T19:20:46.376Z,61.42
2019-04-04T19:23:34.711Z,62.19
2019-04-04T19:26:24.001Z,61.74
2019-04-04T19:29:12.587Z,62.14
2019-04-04T19:32:01.735Z,61.99
2019-04-04T19:34:50.682Z,62.15
2019-04-04T19:37:39.579Z,61.67
2019-04-04T19:40:28.657Z,61.83
2019-04-04T19:43:18.470Z,61.90
2019-04-04T19:46:06.819Z,62.04
2019-04-04T19:48:57.068Z,61.95
2019-04-04T19:51:46.231Z,62.17
2019-04-04T19:54:35.073Z,62.39
2019-04-04T19:57:23.895Z,62.63
2019-04-04T20:00:12.881Z,62.56
2019-04-04T20:03:02.134Z,62.63
2019-04-04T20:05:51.158Z,62.70
2019-04-04T20:08:39.976Z,62.26
2019-04-04T20:11:29.015Z,62.31
2019-04-04T20:14:19.042Z,62.23
2019-04-04T20:17:07.970Z,62.35
2019-04-04T20:19:57.306Z,63.07
2019-04-04T20:22:45.950Z,62.67
2019-04-04T20:25:35.120Z,62.75
2019-04-04T20:28:24.036Z,62.88
2019-04-04T20:31:12.581Z,62.61
2019-04-04T20:34:05.697Z,62.70
2019-04-04T20:36:52.426Z,62.53
2019-04-04T20:39:41.071Z,63.28
2019-04-04T20:42:30.085Z,62.94
2019-04-04T20:45:18.891Z,63.09
2019-04-04T20:48:07.976Z,63.28
2019-04-04T20:50:57.139Z,63.27
2019-04-04T20:53:47.337Z,63.23
2019-04-04T20:56:36.096Z,63.57
2019-04-04T20:59:27.838Z,64.07
2019-04-04T21:02:15.230Z,63.88
2019-04-04T21:05:05.071Z,63.74
2019-04-04T21:07:54.042Z,63.33
2019-04-04T21:10:42.783Z,62.96
2019-04-04T21:13:31.406Z,63.16
2019-04-04T21:16:20.467Z,63.28
2019-04-04T21:19:08.668Z,62.95
2019-04-04T21:21:57.640Z,62.79
2019-04-04T21:24:46.534Z,62.68
2019-04-04T21:27:34.877Z,62.70
2019-04-04T21:30:22.976Z,62.54
2019-04-04T21:33:11.744Z,62.32
2019-04-04T21:36:00.504Z,62.55
2019-04-04T21:38:48.935Z,62.52
2019-04-04T21:41:37.184Z,62.42
2019-04-04T21:44:25.550Z,62.18
2019-04-04T21:47:13.968Z,62.44
2019-04-04T21:50:02.727Z,62.35
2019-04-04T21:52:51.120Z,62.84
2019-04-04T21:55:39.441Z,62.73
2019-04-04T21:58:28.624Z,62.57
2019-04-04T22:01:17.525Z,62.34
2019-04-04T22:04:06.210Z,62.56
2019-04-04T22:06:55.230Z,63.16
2019-04-04T22:09:44.294Z,62.97
2019-04-04T22:12:33.318Z,62.94
2019-04-04T22:15:22.214Z,62.63
2019-04-04T22:18:10.597Z,62.78
2019-04-04T22:20:59.157Z,62.87
2019-04-04T22:23:47.531Z,62.59
2019-04-04T22:26:37.573Z,62.25
2019-04-04T22:29:26.161Z,61.86
2019-04-04T22:32:15.326Z,61.86
2019-04-04T22:35:04.577Z,62.34
2019-04-04T22:37:53.146Z,62.31
2019-04-04T22:40:41.376Z,62.26
2019-04-04T22:43:30.395Z,62.18
2019-04-04T22:46:19.353Z,62.58
2019-04-04T22:49:08.458Z,62.72
2019-04-04T22:51:56.471Z,62.90
2019-04-04T22:54:44.862Z,62.78
2019-04-04T22:57:34.036Z,63.12
2019-04-04T23:00:22.207Z,63.11
2019-04-04T23:03:11.521Z,63.08
2019-04-04T23:05:59.977Z,63.15
2019-04-04T23:08:48.443Z,63.40
2019-04-04T23:11:37.130Z,63.18
2019-04-04T23:14:25.562Z,63.76
2019-04-04T23:17:13.905Z,63.76
2019-04-04T23:20:02.464Z,64.06
2019-04-04T23:22:53.069Z,64.45
2019-04-04T23:25:40.708Z,65.25
2019-04-04T23:28:29.552Z,65.15
2019-04-04T23:31:18.134Z,65.39
2019-04-04T23:34:06.307Z,65.90
2019-04-04T23:36:55.618Z,66.31
2019-04-04T23:39:44.281Z,66.03
2019-04-04T23:42:32.767Z,66.05
2019-04-04T23:45:21.412Z,66.20
2019-04-04T23:48:10.428Z,66.07
2019-04-04T23:50:59.197Z,65.95
2019-04-04T23:53:47.962Z,66.16
2019-04-04T23:56:36.206Z,66.24
2019-04-04T23:59:24.969Z,66.06
